createdAt,value
2023-10-20T00:00:52.220Z,94009.34
2023-10-20T00:03:19.219Z,94007.75
2023-10-20T00:05:46.173Z,94009.31
2023-10-20T00:08:13.075Z,93991.72
2023-10-20T00:10:40.670Z,93994.59
2023-10-20T00:13:08.033Z,93999.88
2023-10-20T00:15:35.989Z,93989.31
2023-10-20T00:18:04.569Z,93986.19
2023-10-20T00:20:31.666Z,93980.63
2023-10-20T00:22:58.624Z,93975.66
2023-10-20T00:25:25.554Z,93970.38
2023-10-20T00:27:52.489Z,93964.53
2023-10-20T00:30:19.421Z,93957.44
2023-10-20T00:32:46.819Z,93960.34
2023-10-20T00:35:15.018Z,93947.88
2023-10-20T00:37:42.551Z,93955.00
2023-10-20T00:40:12.079Z,93947.59
2023-10-20T00:42:39.742Z,93955.53
2023-10-20T00:45:09.547Z,93955.53
2023-10-20T00:47:39.399Z,93950.25
2023-10-20T00:50:13.158Z,93937.56
2023-10-20T00:52:51.040Z,93919.28
2023-10-20T00:55:20.515Z,93921.13
2023-10-20T00:57:47.903Z,93915.88
2023-10-20T01:00:15.659Z,93928.06
2023-10-20T01:02:42.719Z,93902.00
2023-10-20T01:05:11.293Z,93902.78
2023-10-20T01:07:38.315Z,93892.72
2023-10-20T01:10:06.366Z,93883.81
2023-10-20T01:12:34.296Z,93882.31
2023-10-20T01:15:01.690Z,93880.97
2023-10-20T01:17:29.843Z,93866.72
2023-10-20T01:19:57.338Z,93865.16
2023-10-20T01:22:24.351Z,93847.59
2023-10-20T01:24:51.333Z,93858.69
2023-10-20T01:27:18.555Z,93872.31
2023-10-20T01:29:45.414Z,93879.16
2023-10-20T01:32:12.341Z,93863.81
2023-10-20T01:34:39.270Z,93865.66
2023-10-20T01:37:06.508Z,93865.63
2023-10-20T01:39:33.323Z,93852.16
2023-10-20T01:42:00.162Z,93836.34
2023-10-20T01:44:27.031Z,93833.75
2023-10-20T01:46:54.025Z,93831.84
2023-10-20T01:49:20.967Z,93811.53
2023-10-20T01:51:47.968Z,93808.38
2023-10-20T01:54:14.885Z,93800.72
2023-10-20T01:56:41.738Z,93790.16
2023-10-20T01:59:08.646Z,93791.06
2023-10-20T02:01:35.570Z,93773.66
2023-10-20T02:04:02.830Z,93770.41
2023-10-20T02:06:29.759Z,93771.97
2023-10-20T02:08:56.797Z,93762.44
2023-10-20T02:11:23.653Z,93758.81
2023-10-20T02:13:50.557Z,93767.78
2023-10-20T02:16:17.487Z,93774.13
2023-10-20T02:18:44.403Z,93766.78
2023-10-20T02:21:11.320Z,93763.63
2023-10-20T02:23:41.878Z,93756.72
2023-10-20T02:26:10.104Z,93771.75
2023-10-20T02:28:37.871Z,93774.59
2023-10-20T02:31:19.017Z,93768.28
2023-10-20T02:33:46.831Z,93749.75
2023-10-20T02:36:21.663Z,93730.72
2023-10-20T02:38:53.021Z,93743.94
2023-10-20T02:41:20.656Z,93721.22
2023-10-20T02:43:47.924Z,93689.13
2023-10-20T02:46:14.886Z,93691.28
2023-10-20T02:48:41.796Z,93691.75
2023-10-20T02:51:13.926Z,93681.19
2023-10-20T02:53:42.079Z,93696.09
2023-10-20T02:56:20.238Z,93673.28
2023-10-20T02:58:48.409Z,93668.59
2023-10-20T03:01:18.956Z,93654.53
2023-10-20T03:03:46.659Z,93654.59
2023-10-20T03:06:13.871Z,93650.06
2023-10-20T03:08:41.620Z,93654.13
2023-10-20T03:11:10.078Z,93636.75
2023-10-20T03:13:37.190Z,93631.75
2023-10-20T03:16:04.112Z,93644.16
2023-10-20T03:18:31.120Z,93642.50
2023-10-20T03:21:02.481Z,93656.59
2023-10-20T03:23:30.305Z,93637.41
2023-10-20T03:25:57.437Z,93649.81
2023-10-20T03:28:24.286Z,93630.34
2023-10-20T03:30:52.702Z,93614.00
2023-10-20T03:33:19.953Z,93594.72
2023-10-20T03:35:47.439Z,93614.63
2023-10-20T03:38:15.374Z,93606.16
2023-10-20T03:40:43.037Z,93619.28
2023-10-20T03:43:11.444Z,93625.06
2023-10-20T03:45:43.475Z,93615.31
2023-10-20T03:48:11.067Z,93599.25
2023-10-20T03:50:43.063Z,93595.47
2023-10-20T03:53:13.228Z,93584.50
2023-10-20T03:55:40.183Z,93591.25
2023-10-20T03:58:07.035Z,93592.38
2023-10-20T04:00:37.917Z,93593.56
2023-10-20T04:03:05.077Z,93601.44
2023-10-20T04:05:32.816Z,93591.28
2023-10-20T04:07:59.996Z,93582.41
2023-10-20T04:10:27.497Z,93577.03
2023-10-20T04:12:55.124Z,93558.56
2023-10-20T04:15:26.897Z,93542.28
2023-10-20T04:17:54.142Z,93536.66
2023-10-20T04:20:22.565Z,93541.94
2023-10-20T04:22:52.618Z,93542.53
2023-10-20T04:25:21.743Z,93510.66
2023-10-20T04:27:58.732Z,93501.34
2023-10-20T04:30:44.158Z,93492.03
2023-10-20T04:33:37.397Z,93478.56
2023-10-20T04:36:23.033Z,93456.81
2023-10-20T04:39:08.537Z,93440.56
2023-10-20T04:42:07.712Z,93486.44
2023-10-20T04:44:49.727Z,93472.56
2023-10-20T04:47:26.303Z,93449.75
2023-10-20T04:50:19.983Z,93436.56
2023-10-20T04:52:52.906Z,93433.88
2023-10-20T04:55:19.759Z,93449.63
2023-10-20T04:58:05.228Z,93457.09
2023-10-20T05:00:36.613Z,93426.06
2023-10-20T05:03:03.670Z,93428.59
2023-10-20T05:05:43.524Z,93453.66
2023-10-20T05:08:13.407Z,93422.88
2023-10-20T05:10:42.998Z,93398.22
2023-10-20T05:13:13.473Z,93406.00
2023-10-20T05:15:41.482Z,93388.81
2023-10-20T05:18:16.332Z,93379.81
2023-10-20T05:20:44.100Z,93341.69
2023-10-20T05:23:15.927Z,93335.34
2023-10-20T05:25:50.267Z,93351.88
2023-10-20T05:28:17.795Z,93331.63
2023-10-20T05:30:46.470Z,93339.31
2023-10-20T05:33:14.273Z,93349.16
2023-10-20T05:35:41.965Z,93344.31
2023-10-20T05:38:09.763Z,93335.44
2023-10-20T05:40:37.725Z,93331.00
2023-10-20T05:43:06.714Z,93331.63
2023-10-20T05:45:42.718Z,93324.72
2023-10-20T05:48:10.031Z,93314.25
2023-10-20T05:50:39.278Z,93317.06
2023-10-20T05:53:07.255Z,93321.22
2023-10-20T05:55:34.380Z,93319.88
2023-10-20T05:58:02.182Z,93324.38
2023-10-20T06:00:29.259Z,93323.50
2023-10-20T06:02:56.517Z,93320.31
2023-10-20T06:05:24.128Z,93320.94
2023-10-20T06:07:51.127Z,93328.06
2023-10-20T06:10:23.747Z,93320.38
2023-10-20T06:12:53.056Z,93321.31
2023-10-20T06:15:23.182Z,93302.34
2023-10-20T06:17:52.430Z,93308.25
2023-10-20T06:20:19.924Z,93297.13
2023-10-20T06:22:47.049Z,93306.41
2023-10-20T06:25:14.436Z,93292.22
2023-10-20T06:27:46.348Z,93297.44
2023-10-20T06:30:34.035Z,93301.34
2023-10-20T06:33:18.006Z,93277.31
2023-10-20T06:35:52.432Z,93282.19
2023-10-20T06:38:46.278Z,93278.66
2023-10-20T06:41:17.214Z,93273.19
2023-10-20T06:43:45.494Z,93272.47
2023-10-20T06:46:12.422Z,93260.91
2023-10-20T06:48:39.487Z,93253.91
2023-10-20T06:51:06.357Z,93245.34
2023-10-20T06:53:33.281Z,93242.69
2023-10-20T06:56:13.965Z,93229.59
2023-10-20T06:58:42.658Z,93218.34
2023-10-20T07:01:09.635Z,93207.41
2023-10-20T07:03:36.768Z,93198.81
2023-10-20T07:06:08.389Z,93179.28
2023-10-20T07:08:36.045Z,93173.41
2023-10-20T07:11:06.274Z,93166.97
2023-10-20T07:13:33.580Z,93160.72
2023-10-20T07:16:01.645Z,93150.75
2023-10-20T07:18:28.756Z,93147.78
2023-10-20T07:20:58.539Z,93161.50
2023-10-20T07:23:26.342Z,93147.59
2023-10-20T07:28:40.942Z,93143.28
2023-10-20T07:31:15.891Z,93141.53
2023-10-20T07:33:43.072Z,93145.03
2023-10-20T07:36:10.248Z,93133.13
2023-10-20T07:38:37.596Z,93125.69
2023-10-20T07:41:10.855Z,93129.78
2023-10-20T07:43:41.427Z,93135.91
2023-10-20T07:46:15.087Z,93131.69
2023-10-20T07:48:42.074Z,93124.28
2023-10-20T07:51:09.213Z,93126.53
2023-10-20T07:53:36.261Z,93128.97
2023-10-20T07:56:03.987Z,93122.34
2023-10-20T07:58:32.706Z,93113.50
2023-10-20T08:01:00.305Z,93098.13
2023-10-20T08:03:27.737Z,93114.25
2023-10-20T08:05:55.123Z,93096.72
2023-10-20T08:08:22.350Z,93093.66
2023-10-20T08:10:50.576Z,93099.75
2023-10-20T08:13:17.672Z,93094.91
2023-10-20T08:15:45.009Z,93095.88
2023-10-20T08:18:12.157Z,93114.16
2023-10-20T08:20:40.264Z,93117.31
2023-10-20T08:23:07.235Z,93122.53
2023-10-20T08:25:38.766Z,93137.59
2023-10-20T08:28:06.349Z,93132.56
2023-10-20T08:30:33.225Z,93129.72
2023-10-20T08:33:00.642Z,93123.91
2023-10-20T08:35:27.838Z,93112.59
2023-10-20T08:37:54.770Z,93106.06
2023-10-20T08:40:22.231Z,93132.28
2023-10-20T08:42:50.313Z,93129.25
2023-10-20T08:45:17.246Z,93132.13
2023-10-20T08:47:45.564Z,93147.53
2023-10-20T08:50:17.202Z,93150.97
2023-10-20T08:52:45.855Z,93155.19
2023-10-20T08:55:14.510Z,93167.81
2023-10-20T08:57:41.581Z,93156.91
2023-10-20T09:00:17.287Z,93157.22
2023-10-20T09:02:44.225Z,93160.34
2023-10-20T09:05:11.459Z,93160.66
2023-10-20T09:07:39.209Z,93147.50
2023-10-20T09:10:07.123Z,93147.81
2023-10-20T09:12:34.455Z,93140.22
2023-10-20T09:15:01.362Z,93159.09
2023-10-20T09:17:30.073Z,93139.28
2023-10-20T09:20:07.667Z,93135.22
2023-10-20T09:22:34.765Z,93107.94
2023-10-20T09:25:03.605Z,93128.53
2023-10-20T09:27:30.788Z,93117.63
2023-10-20T09:29:59.462Z,93103.19
2023-10-20T09:32:26.532Z,93096.91
2023-10-20T09:34:55.844Z,93085.66
2023-10-20T09:37:30.188Z,93075.16
2023-10-20T09:40:07.361Z,93071.66
2023-10-20T09:43:25.030Z,93062.19
2023-10-20T09:46:05.058Z,93049.81
2023-10-20T09:48:33.829Z,93056.81
2023-10-20T09:51:01.201Z,93078.19
2023-10-20T09:53:28.299Z,93066.06
2023-10-20T09:55:55.920Z,93057.53
2023-10-20T09:58:35.041Z,93064.09
2023-10-20T10:01:02.075Z,93068.63
2023-10-20T10:03:42.100Z,93070.75
2023-10-20T10:06:20.552Z,93081.38
2023-10-20T10:08:48.900Z,93082.19
2023-10-20T10:11:30.558Z,93071.34
2023-10-20T10:14:07.841Z,93095.72
2023-10-20T10:17:09.385Z,93097.47
2023-10-20T10:19:36.465Z,93112.75
2023-10-20T10:22:06.363Z,93100.16
2023-10-20T10:24:38.001Z,93091.81
2023-10-20T10:27:08.007Z,93083.09
2023-10-20T10:30:06.677Z,93079.88
2023-10-20T10:32:46.088Z,93085.69
2023-10-20T10:35:17.895Z,93096.06
2023-10-20T10:37:45.296Z,93076.81
2023-10-20T10:40:23.638Z,93085.50
2023-10-20T10:42:52.430Z,93087.13
2023-10-20T10:45:37.330Z,93088.22
2023-10-20T10:48:06.900Z,93087.75
2023-10-20T10:50:36.764Z,93081.41
2023-10-20T10:53:04.125Z,93097.25
2023-10-20T10:55:32.297Z,93095.69
2023-10-20T10:58:00.989Z,93108.72
2023-10-20T11:00:29.344Z,93110.47
2023-10-20T11:02:59.005Z,93120.41
2023-10-20T11:05:26.746Z,93228.38
2023-10-20T11:08:00.184Z,93215.34
2023-10-20T11:10:30.285Z,93258.06
2023-10-20T11:12:58.409Z,93237.69
2023-10-20T11:15:32.215Z,93249.63
2023-10-20T11:18:01.770Z,93232.34
2023-10-20T11:20:37.556Z,93231.59
2023-10-20T11:23:08.178Z,93216.69
2023-10-20T11:25:38.705Z,93233.38
2023-10-20T11:28:06.155Z,93230.91
2023-10-20T11:30:42.826Z,93224.81
2023-10-20T11:33:15.979Z,93229.00
2023-10-20T11:35:45.038Z,93240.75
2023-10-20T11:38:16.346Z,93258.06
2023-10-20T11:40:43.403Z,93261.34
2023-10-20T11:43:10.257Z,93266.91
2023-10-20T11:45:37.116Z,93276.50
2023-10-20T11:48:04.437Z,93272.72
2023-10-20T11:50:31.544Z,93266.38
2023-10-20T11:52:58.498Z,93261.41
2023-10-20T11:55:25.476Z,93278.94
2023-10-20T11:57:52.353Z,93276.97
2023-10-20T12:00:19.211Z,93267.91
2023-10-20T12:02:46.208Z,93256.50
2023-10-20T12:05:13.140Z,93260.50
2023-10-20T12:07:40.017Z,93278.63
2023-10-20T12:10:07.764Z,93285.50
2023-10-20T12:12:35.677Z,93281.53
2023-10-20T12:15:03.841Z,93289.47
2023-10-20T12:17:31.035Z,93284.47
2023-10-20T12:19:58.141Z,93292.97
2023-10-20T12:22:27.482Z,93298.97
2023-10-20T12:24:54.691Z,93295.88
2023-10-20T12:27:22.381Z,93292.75
2023-10-20T12:29:49.700Z,93294.94
2023-10-20T12:32:17.349Z,93315.66
2023-10-20T12:34:44.607Z,93340.72
2023-10-20T12:37:12.057Z,93336.13
2023-10-20T12:39:40.864Z,93329.59
2023-10-20T12:42:08.616Z,93355.34
2023-10-20T12:44:36.395Z,93348.09
2023-10-20T12:47:04.310Z,93353.25
2023-10-20T12:49:32.885Z,93344.31
2023-10-20T12:52:03.607Z,93355.47
2023-10-20T12:54:30.959Z,93337.03
2023-10-20T12:57:00.100Z,93335.69
2023-10-20T12:59:27.417Z,93347.09
2023-10-20T13:01:54.528Z,93356.84
2023-10-20T13:04:21.828Z,93379.88
2023-10-20T13:06:59.152Z,93406.78
2023-10-20T13:09:27.308Z,93408.59
2023-10-20T13:11:54.357Z,93420.88
2023-10-20T13:14:21.453Z,93424.28
2023-10-20T13:16:48.530Z,93425.53
2023-10-20T13:19:16.480Z,93414.25
2023-10-20T13:21:43.969Z,93424.75
2023-10-20T13:24:11.119Z,93427.50
2023-10-20T13:26:38.742Z,93434.31
2023-10-20T13:29:06.946Z,93438.25
2023-10-20T13:31:35.013Z,93455.03
2023-10-20T13:34:03.543Z,93467.56
2023-10-20T13:36:30.454Z,93459.38
2023-10-20T13:38:57.331Z,93466.66
2023-10-20T13:41:25.073Z,93471.06
2023-10-20T13:43:52.826Z,93485.94
2023-10-20T13:46:20.247Z,93494.19
2023-10-20T13:48:48.099Z,93502.47
2023-10-20T13:51:15.133Z,93492.97
2023-10-20T13:53:42.111Z,93478.19
2023-10-20T13:56:09.052Z,93457.88
2023-10-20T13:58:35.948Z,93460.94
2023-10-20T14:01:03.881Z,93450.09
2023-10-20T14:03:31.123Z,93463.78
2023-10-20T14:05:58.345Z,93480.59
2023-10-20T14:08:25.799Z,93479.75
2023-10-20T14:10:55.116Z,93479.59
2023-10-20T14:13:22.090Z,93484.13
2023-10-20T14:15:50.563Z,93483.84
2023-10-20T14:18:17.822Z,93493.00
2023-10-20T14:20:44.971Z,93485.56
2023-10-20T14:23:11.922Z,93505.34
2023-10-20T14:25:38.822Z,93519.19
2023-10-20T14:28:06.821Z,93520.72
2023-10-20T14:30:34.258Z,93518.94
2023-10-20T14:33:01.379Z,93504.41
2023-10-20T14:35:28.495Z,93523.03
2023-10-20T14:37:57.278Z,93545.94
2023-10-20T14:40:24.120Z,93545.47
2023-10-20T14:42:51.021Z,93548.78
2023-10-20T14:45:18.161Z,93553.31
2023-10-20T14:47:46.985Z,93559.19
2023-10-20T14:50:13.851Z,93557.34
2023-10-20T14:52:41.435Z,93554.59
2023-10-20T14:55:10.418Z,93566.69
2023-10-20T14:57:37.575Z,93582.06
2023-10-20T15:00:10.927Z,93584.28
2023-10-20T15:02:39.825Z,93578.00
2023-10-20T15:05:07.956Z,93591.19
2023-10-20T15:07:37.447Z,93591.84
2023-10-20T15:10:05.499Z,93580.88
2023-10-20T15:12:32.573Z,93586.84
2023-10-20T15:15:00.676Z,93592.38
2023-10-20T15:17:27.915Z,93585.25
2023-10-20T15:19:55.066Z,93580.53
2023-10-20T15:22:21.972Z,93583.66
2023-10-20T15:24:49.761Z,93611.38
2023-10-20T15:27:19.458Z,93612.47
2023-10-20T15:29:47.011Z,93640.38
2023-10-20T15:32:16.451Z,93656.16
2023-10-20T15:34:43.380Z,93667.03
2023-10-20T15:37:10.287Z,93663.19
2023-10-20T15:39:47.982Z,93667.63
2023-10-20T15:42:17.721Z,93674.44
2023-10-20T15:44:44.672Z,93695.81
2023-10-20T15:47:11.604Z,93677.56
2023-10-20T15:49:38.472Z,93676.69
2023-10-20T15:52:05.363Z,93686.16
2023-10-20T15:54:34.848Z,93699.44
2023-10-20T15:57:01.980Z,93712.22
2023-10-20T15:59:29.293Z,93707.88
2023-10-20T16:01:56.222Z,93717.09
2023-10-20T16:04:23.779Z,93730.59
2023-10-20T16:06:50.809Z,93749.03
2023-10-20T16:09:19.857Z,93748.59
2023-10-20T16:11:47.176Z,93748.66
2023-10-20T16:14:14.166Z,93744.28
2023-10-20T16:16:41.245Z,93744.47
2023-10-20T16:19:08.141Z,93753.84
2023-10-20T16:21:35.067Z,93750.91
2023-10-20T16:24:02.025Z,93752.16
2023-10-20T16:26:28.951Z,93763.41
2023-10-20T16:28:55.858Z,93766.06
2023-10-20T16:31:23.120Z,93764.00
2023-10-20T16:33:50.204Z,93764.97
2023-10-20T16:36:17.109Z,93773.13
2023-10-20T16:38:45.454Z,93781.38
2023-10-20T16:41:12.389Z,93801.97
2023-10-20T16:43:39.244Z,93801.41
2023-10-20T16:46:06.394Z,93811.28
2023-10-20T16:48:34.783Z,93825.19
2023-10-20T16:51:01.750Z,93840.72
2023-10-20T16:53:29.664Z,93849.13
2023-10-20T16:56:00.889Z,93828.38
2023-10-20T16:58:28.285Z,93816.41
2023-10-20T17:01:05.715Z,93818.84
2023-10-20T17:03:34.526Z,93819.31
2023-10-20T17:06:08.382Z,93821.97
2023-10-20T17:08:35.463Z,93841.53
2023-10-20T17:11:04.606Z,93836.97
2023-10-20T17:13:32.792Z,93836.06
2023-10-20T17:16:09.185Z,93846.22
2023-10-20T17:18:36.592Z,93837.63
2023-10-20T17:21:05.385Z,93838.88
2023-10-20T17:23:32.746Z,93838.19
2023-10-20T17:26:00.200Z,93858.53
2023-10-20T17:28:27.402Z,93890.03
2023-10-20T17:30:56.001Z,93900.44
2023-10-20T17:33:23.249Z,93902.06
2023-10-20T17:35:50.294Z,93910.97
2023-10-20T17:38:17.246Z,93925.09
2023-10-20T17:40:44.125Z,93924.16
2023-10-20T17:43:10.989Z,93929.53
2023-10-20T17:45:40.109Z,93938.00
2023-10-20T17:48:08.733Z,93936.94
2023-10-20T17:50:40.006Z,93953.63
2023-10-20T17:53:08.782Z,93955.78
2023-10-20T17:55:42.168Z,93958.13
2023-10-20T17:58:09.870Z,93963.03
2023-10-20T18:00:36.803Z,93965.34
2023-10-20T18:03:04.205Z,93975.25
2023-10-20T18:05:31.718Z,93977.69
2023-10-20T18:07:59.403Z,93973.59
2023-10-20T18:10:26.425Z,93977.63
2023-10-20T18:12:53.275Z,93975.28
2023-10-20T18:15:20.161Z,93989.06
2023-10-20T18:17:47.058Z,93997.13
2023-10-20T18:20:13.956Z,94006.59
2023-10-20T18:22:41.372Z,93993.69
2023-10-20T18:25:09.570Z,93998.53
2023-10-20T18:27:36.993Z,94006.44
2023-10-20T18:30:04.453Z,94023.94
2023-10-20T18:32:31.394Z,94038.91
2023-10-20T18:34:58.276Z,94039.41
2023-10-20T18:37:25.100Z,94032.47
2023-10-20T18:39:51.931Z,94038.53
2023-10-20T18:42:18.906Z,94032.75
2023-10-20T18:44:46.066Z,94029.84
2023-10-20T18:47:12.914Z,94043.25
2023-10-20T18:49:39.827Z,94038.91
2023-10-20T18:52:06.909Z,94046.22
2023-10-20T18:54:33.810Z,94047.63
2023-10-20T18:57:00.759Z,94059.63
2023-10-20T18:59:27.720Z,94056.84
2023-10-20T19:01:54.622Z,94068.69
2023-10-20T19:04:22.270Z,94060.44
2023-10-20T19:06:49.352Z,94067.13
2023-10-20T19:09:16.207Z,94055.72
2023-10-20T19:11:43.137Z,94052.00
2023-10-20T19:14:10.014Z,94047.25
2023-10-20T19:16:36.877Z,94061.31
2023-10-20T19:19:04.165Z,94065.84
2023-10-20T19:21:30.980Z,94063.69
2023-10-20T19:23:57.915Z,94063.00
2023-10-20T19:26:24.795Z,94076.38
2023-10-20T19:28:51.982Z,94076.97
2023-10-20T19:31:18.823Z,94069.06
2023-10-20T19:33:45.782Z,94072.00
2023-10-20T19:36:13.031Z,94078.13
2023-10-20T19:38:39.981Z,94093.63
2023-10-20T19:41:07.929Z,94083.16
2023-10-20T19:43:34.874Z,94087.25
2023-10-20T19:46:01.740Z,94088.31
2023-10-20T19:48:28.688Z,94082.22
2023-10-20T19:50:58.175Z,94095.75
2023-10-20T19:53:25.221Z,94099.50
2023-10-20T19:55:52.056Z,94114.66
2023-10-20T19:58:18.974Z,94104.81
2023-10-20T20:00:45.865Z,94094.41
2023-10-20T20:03:12.931Z,94093.00
2023-10-20T20:05:39.920Z,94099.28
2023-10-20T20:08:07.203Z,94097.16
2023-10-20T20:10:34.192Z,94097.16
2023-10-20T20:13:01.158Z,94103.28
2023-10-20T20:15:28.071Z,94099.47
2023-10-20T20:17:57.672Z,94099.47
2023-10-20T20:20:27.549Z,94097.91
2023-10-20T20:22:54.437Z,94098.09
2023-10-20T20:25:21.372Z,94086.31
2023-10-20T20:27:48.246Z,94079.84
2023-10-20T20:30:15.269Z,94086.13
2023-10-20T20:32:42.487Z,94089.28
2023-10-20T20:35:10.007Z,94091.06
2023-10-20T20:37:36.911Z,94083.38
2023-10-20T20:40:04.482Z,94082.81
2023-10-20T20:42:31.983Z,94079.06
2023-10-20T20:44:58.920Z,94062.34
2023-10-20T20:47:25.912Z,94054.31
2023-10-20T20:49:52.879Z,94064.44
2023-10-20T20:52:19.762Z,94054.31
2023-10-20T20:54:47.522Z,94052.44
2023-10-20T20:57:14.431Z,94037.75
2023-10-20T20:59:41.316Z,94045.66
2023-10-20T21:02:08.172Z,94049.94
2023-10-20T21:04:35.122Z,94059.19
2023-10-20T21:07:02.253Z,94050.09
2023-10-20T21:09:29.144Z,94049.28
2023-10-20T21:11:56.108Z,94053.63
2023-10-20T21:14:23.024Z,94047.69
2023-10-20T21:16:49.946Z,94043.44
2023-10-20T21:19:16.810Z,94054.28
2023-10-20T21:21:43.670Z,94046.94
2023-10-20T21:24:10.626Z,94039.88
2023-10-20T21:26:37.607Z,94034.38
2023-10-20T21:29:05.333Z,94039.47
2023-10-20T21:31:32.439Z,94048.84
2023-10-20T21:33:59.311Z,94031.78
2023-10-20T21:36:26.175Z,94030.47
2023-10-20T21:38:53.172Z,94035.56
2023-10-20T21:41:20.034Z,94036.34
2023-10-20T21:43:46.922Z,94027.13
2023-10-20T21:46:14.367Z,94022.59
2023-10-20T21:48:41.471Z,94033.34
2023-10-20T21:51:11.896Z,94051.16
2023-10-20T21:53:41.954Z,94060.28
2023-10-20T21:56:10.532Z,94065.00
2023-10-20T21:58:40.611Z,94067.72
2023-10-20T22:01:13.189Z,94063.00
2023-10-20T22:03:40.526Z,94053.97
2023-10-20T22:06:10.840Z,94057.28
2023-10-20T22:08:37.947Z,94060.56
2023-10-20T22:11:04.890Z,94058.50
2023-10-20T22:13:31.788Z,94064.41
2023-10-20T22:15:58.732Z,94063.97
2023-10-20T22:18:25.751Z,94072.34
2023-10-20T22:20:52.802Z,94074.81
2023-10-20T22:23:19.908Z,94083.84
2023-10-20T22:25:46.768Z,94087.13
2023-10-20T22:28:13.638Z,94081.75
2023-10-20T22:30:40.528Z,94090.56
2023-10-20T22:33:07.507Z,94094.38
2023-10-20T22:35:34.424Z,94103.72
2023-10-20T22:38:01.912Z,94097.75
2023-10-20T22:40:28.733Z,94100.47
2023-10-20T22:42:55.672Z,94106.88
2023-10-20T22:45:22.503Z,94102.19
2023-10-20T22:47:49.456Z,94109.22
2023-10-20T22:50:19.412Z,94111.56
2023-10-20T22:52:49.877Z,94120.84
2023-10-20T22:55:16.804Z,94127.50
2023-10-20T22:57:43.696Z,94137.31
2023-10-20T23:00:11.680Z,94140.50
2023-10-20T23:02:40.010Z,94147.94
2023-10-20T23:05:08.745Z,94150.84
2023-10-20T23:07:36.015Z,94145.84
2023-10-20T23:10:04.830Z,94140.34
2023-10-20T23:12:34.678Z,94144.91
2023-10-20T23:15:02.069Z,94154.97
2023-10-20T23:17:29.120Z,94160.75
2023-10-20T23:19:56.669Z,94168.13
2023-10-20T23:22:25.418Z,94172.31
2023-10-20T23:24:52.344Z,94162.56
2023-10-20T23:27:19.295Z,94171.31
2023-10-20T23:29:46.276Z,94164.44
2023-10-20T23:32:14.152Z,94169.19
2023-10-20T23:34:41.076Z,94168.66
2023-10-20T23:37:08.787Z,94165.50
2023-10-20T23:39:36.855Z,94171.59
2023-10-20T23:42:05.233Z,94180.34
2023-10-20T23:44:32.665Z,94184.53
2023-10-20T23:46:59.540Z,94185.06
2023-10-20T23:49:26.535Z,94188.78
2023-10-20T23:51:53.437Z,94190.13
2023-10-20T23:54:20.384Z,94188.81
2023-10-20T23:56:47.541Z,94186.19
2023-10-20T23:59:14.430Z,94189.16
